createdAt,value
2022-12-13T00:00:06.661Z,52739.43
2022-12-13T00:01:09.582Z,52695.34
2022-12-13T00:02:12.386Z,52679.31
2022-12-13T00:03:15.085Z,52691.34
2022-12-13T00:04:18.176Z,52633.22
2022-12-13T00:05:20.734Z,52686.33
2022-12-13T00:06:23.610Z,52669.29
2022-12-13T00:07:26.376Z,52723.40
2022-12-13T00:08:29.522Z,52711.37
2022-12-13T00:09:32.855Z,52723.40
2022-12-13T00:10:36.131Z,52801.55
2022-12-13T00:11:39.325Z,52789.53
2022-12-13T00:12:42.290Z,52789.53
2022-12-13T00:13:45.695Z,52746.45
2022-12-13T00:14:48.855Z,52734.42
2022-12-13T00:15:51.528Z,52797.55
2022-12-13T00:16:55.074Z,52795.54
2022-12-13T00:17:57.998Z,52738.43
2022-12-13T00:19:01.069Z,52746.45
2022-12-13T00:20:04.354Z,52716.39
2022-12-13T00:21:07.450Z,52725.40
2022-12-13T00:22:10.410Z,52771.50
2022-12-13T00:23:13.730Z,52689.33
2022-12-13T00:24:16.883Z,52700.36
2022-12-13T00:25:20.156Z,52734.42
2022-12-13T00:26:23.041Z,52737.43
2022-12-13T00:27:25.810Z,52657.27
2022-12-13T00:28:28.691Z,52669.29
2022-12-13T00:29:31.869Z,52693.34
2022-12-13T00:30:35.721Z,52632.22
2022-12-13T00:32:00.648Z,52667.29
2022-12-13T00:32:46.129Z,52679.31
2022-12-13T00:33:48.991Z,52655.27
2022-12-13T00:34:52.073Z,52667.29
2022-12-13T00:35:55.153Z,52691.34
2022-12-13T00:36:58.026Z,52719.39
2022-12-13T00:38:01.115Z,52691.34
2022-12-13T00:39:04.092Z,52723.40
2022-12-13T00:40:06.870Z,52704.36
2022-12-13T00:41:10.040Z,52657.27
2022-12-13T00:42:13.019Z,52711.37
2022-12-13T00:43:16.201Z,52614.18
2022-12-13T00:44:19.178Z,52717.39
2022-12-13T00:45:22.055Z,52685.32
2022-12-13T00:46:24.874Z,52675.30
2022-12-13T00:47:27.608Z,52588.14
2022-12-13T00:48:30.689Z,52523.01
2022-12-13T00:49:33.260Z,52495.96
2022-12-13T00:50:36.525Z,52508.98
2022-12-13T00:51:40.015Z,52579.12
2022-12-13T00:52:42.990Z,52643.24
2022-12-13T00:53:46.080Z,52622.20
2022-12-13T00:54:48.943Z,52620.20
2022-12-13T00:55:51.938Z,52615.19
2022-12-13T00:56:54.999Z,52559.08
2022-12-13T00:57:57.774Z,52609.18
2022-12-13T00:59:00.552Z,52598.16
2022-12-13T01:00:03.436Z,52670.30
2022-12-13T01:01:06.459Z,52683.32
2022-12-13T01:02:09.370Z,52699.35
2022-12-13T01:03:12.589Z,52657.27
2022-12-13T01:04:15.333Z,52672.30
2022-12-13T01:05:33.438Z,52648.25
2022-12-13T01:06:22.510Z,52659.27
2022-12-13T01:07:25.604Z,52585.13
2022-12-13T01:08:28.451Z,52597.15
2022-12-13T01:09:31.094Z,52558.08
2022-12-13T01:10:33.700Z,52561.08
2022-12-13T01:11:36.474Z,52512.99
2022-12-13T01:12:39.558Z,52492.95
2022-12-13T01:13:42.529Z,52487.95
2022-12-13T01:14:45.421Z,52469.91
2022-12-13T01:15:48.283Z,52483.94
2022-12-13T01:16:51.116Z,52703.36
2022-12-13T01:17:54.136Z,52645.25
2022-12-13T01:18:56.801Z,52554.07
2022-12-13T01:19:59.478Z,52585.13
2022-12-13T01:21:02.245Z,52647.25
2022-12-13T01:22:05.014Z,52640.24
2022-12-13T01:23:07.890Z,52639.23
2022-12-13T01:24:10.976Z,52636.23
2022-12-13T01:25:14.190Z,52625.21
2022-12-13T01:26:17.243Z,52618.20
2022-12-13T01:27:20.521Z,52566.09
2022-12-13T01:28:23.903Z,52537.04
2022-12-13T01:29:26.879Z,52657.27
2022-12-13T01:30:29.921Z,52623.20
2022-12-13T01:31:32.869Z,52681.32
2022-12-13T01:32:36.011Z,52731.41
2022-12-13T01:33:39.010Z,52661.28
2022-12-13T01:34:41.780Z,52619.20
2022-12-13T01:35:45.185Z,52630.21
2022-12-13T01:36:48.028Z,52651.26
2022-12-13T01:37:50.913Z,52623.20
2022-12-13T01:38:53.783Z,52616.19
2022-12-13T01:39:58.545Z,52590.14
2022-12-13T01:41:01.471Z,52620.20
2022-12-13T01:42:05.062Z,52572.11
2022-12-13T01:43:14.533Z,52574.11
2022-12-13T01:44:12.888Z,52537.04
2022-12-13T01:45:16.154Z,52611.18
2022-12-13T01:46:19.261Z,52606.17
2022-12-13T01:47:22.312Z,52613.18
2022-12-13T01:48:25.173Z,52616.19
2022-12-13T01:49:28.147Z,52634.23
2022-12-13T01:50:31.679Z,52605.17
2022-12-13T01:51:34.427Z,52641.24
2022-12-13T01:52:37.397Z,52631.22
2022-12-13T01:53:40.065Z,52608.18
2022-12-13T01:54:46.355Z,52632.22
2022-12-13T01:55:46.937Z,52614.18
2022-12-13T01:56:49.712Z,52624.21
2022-12-13T01:57:52.583Z,52609.18
2022-12-13T01:58:55.454Z,52603.16
2022-12-13T01:59:59.060Z,52635.23
2022-12-13T02:01:02.017Z,52644.24
2022-12-13T02:02:05.342Z,52638.23
2022-12-13T02:03:08.286Z,52622.20
2022-12-13T02:04:13.120Z,52641.24
2022-12-13T02:05:16.416Z,52657.27
2022-12-13T02:06:19.676Z,52720.39
2022-12-13T02:07:23.695Z,52678.31
2022-12-13T02:08:26.796Z,52649.25
2022-12-13T02:09:29.533Z,52688.33
2022-12-13T02:10:32.610Z,52699.35
2022-12-13T02:11:35.274Z,52695.34
2022-12-13T02:12:38.048Z,52719.39
2022-12-13T02:13:40.950Z,52757.46
2022-12-13T02:14:43.804Z,52747.45
2022-12-13T02:15:47.045Z,52727.41
2022-12-13T02:16:49.759Z,52702.36
2022-12-13T02:17:52.729Z,52718.39
2022-12-13T02:18:55.506Z,52721.39
2022-12-13T02:19:58.593Z,52720.39
2022-12-13T02:21:01.867Z,52655.27
2022-12-13T02:22:04.961Z,52703.36
2022-12-13T02:23:08.433Z,52703.36
2022-12-13T02:24:11.413Z,52684.32
2022-12-13T02:25:14.937Z,52679.31
2022-12-13T02:26:18.084Z,52703.36
2022-12-13T02:27:30.325Z,52671.30
2022-12-13T02:28:31.360Z,52742.44
2022-12-13T02:29:31.700Z,52719.39
2022-12-13T02:30:34.391Z,52696.35
2022-12-13T02:31:37.429Z,52755.46
2022-12-13T02:32:40.243Z,52727.41
2022-12-13T02:33:51.725Z,52673.30
2022-12-13T02:34:54.291Z,52651.26
2022-12-13T02:35:57.380Z,52691.34
2022-12-13T02:37:00.561Z,52681.32
2022-12-13T02:38:03.530Z,52641.24
2022-12-13T02:39:06.512Z,52679.31
2022-12-13T02:40:09.895Z,52735.42
2022-12-13T02:41:12.571Z,52684.32
2022-12-13T02:42:21.578Z,52717.39
2022-12-13T02:43:21.456Z,52734.42
2022-12-13T02:44:24.876Z,52723.40
2022-12-13T02:45:28.054Z,52731.41
2022-12-13T02:46:30.793Z,52728.41
2022-12-13T02:47:33.452Z,52691.34
2022-12-13T02:48:36.304Z,52774.50
2022-12-13T02:49:39.160Z,52750.45
2022-12-13T02:50:42.125Z,52675.30
2022-12-13T02:51:45.206Z,52725.40
2022-12-13T02:52:47.971Z,52679.31
2022-12-13T02:53:50.761Z,52693.34
2022-12-13T02:54:53.319Z,52707.37
2022-12-13T02:55:56.415Z,52702.36
2022-12-13T02:56:59.368Z,52683.32
2022-12-13T02:58:02.351Z,52701.36
2022-12-13T02:59:05.324Z,52705.36
2022-12-13T03:00:08.300Z,52669.29
2022-12-13T03:01:29.127Z,52699.35
2022-12-13T03:02:21.822Z,52649.25
2022-12-13T03:03:20.436Z,52686.33
2022-12-13T03:04:26.489Z,52720.39
2022-12-13T03:05:28.431Z,52678.31
2022-12-13T03:06:34.093Z,52647.25
2022-12-13T03:07:35.904Z,52665.29
2022-12-13T03:08:38.877Z,52637.23
2022-12-13T03:09:41.853Z,52719.39
2022-12-13T03:10:44.836Z,52734.42
2022-12-13T03:11:47.806Z,52725.40
2022-12-13T03:12:50.782Z,52713.38
2022-12-13T03:13:54.390Z,52728.41
2022-12-13T03:14:57.451Z,52701.36
2022-12-13T03:16:00.575Z,52715.38
2022-12-13T03:17:03.931Z,52768.49
2022-12-13T03:18:07.001Z,52749.45
2022-12-13T03:19:10.080Z,52748.45
2022-12-13T03:20:23.129Z,52715.38
2022-12-13T03:21:18.003Z,52724.40
2022-12-13T03:22:20.874Z,52725.40
2022-12-13T03:23:23.934Z,52747.45
2022-12-13T03:24:27.015Z,52772.50
2022-12-13T03:25:31.574Z,52744.44
2022-12-13T03:26:34.706Z,52714.38
2022-12-13T03:27:37.686Z,52739.43
2022-12-13T03:28:40.453Z,52732.42
2022-12-13T03:29:43.446Z,52706.36
2022-12-13T03:30:46.408Z,52709.37
2022-12-13T03:31:49.591Z,52707.37
2022-12-13T03:32:52.265Z,52705.36
2022-12-13T03:33:55.344Z,52677.31
2022-12-13T03:35:00.905Z,52717.39
2022-12-13T03:36:02.732Z,52770.49
2022-12-13T03:37:05.823Z,52745.44
2022-12-13T03:38:08.997Z,52724.40
2022-12-13T03:39:11.765Z,52736.43
2022-12-13T03:40:14.437Z,52729.41
2022-12-13T03:41:17.309Z,52701.36
2022-12-13T03:42:19.972Z,52772.50
2022-12-13T03:43:23.500Z,52767.49
2022-12-13T03:44:31.741Z,52748.45
2022-12-13T03:45:30.548Z,52727.41
2022-12-13T03:46:33.344Z,52749.45
2022-12-13T03:47:35.996Z,52803.56
2022-12-13T03:48:38.868Z,52794.54
2022-12-13T03:49:41.532Z,52799.55
2022-12-13T03:50:44.621Z,52771.50
2022-12-13T03:51:47.614Z,52781.52
2022-12-13T03:52:50.362Z,52802.55
2022-12-13T03:53:53.463Z,52793.54
2022-12-13T03:54:56.434Z,52732.42
2022-12-13T03:55:59.294Z,52786.52
2022-12-13T03:57:03.514Z,52739.43
2022-12-13T03:58:08.087Z,52724.40
2022-12-13T03:59:10.790Z,52747.45
2022-12-13T04:00:13.963Z,52769.49
2022-12-13T04:01:16.761Z,52744.44
2022-12-13T04:02:30.477Z,52705.36
2022-12-13T04:03:23.896Z,52747.45
2022-12-13T04:04:26.498Z,52796.54
2022-12-13T04:05:29.167Z,52757.46
2022-12-13T04:06:33.147Z,52780.51
2022-12-13T04:07:36.042Z,52764.48
2022-12-13T04:08:38.925Z,52736.43
2022-12-13T04:09:42.104Z,52763.48
2022-12-13T04:10:44.975Z,52751.46
2022-12-13T04:11:48.160Z,52740.43
2022-12-13T04:12:50.816Z,52782.52
2022-12-13T04:13:53.701Z,52798.55
2022-12-13T04:14:56.976Z,52768.49
2022-12-13T04:16:00.211Z,52780.51
2022-12-13T04:17:03.245Z,52760.47
2022-12-13T04:18:06.014Z,52709.37
2022-12-13T04:19:09.391Z,52743.44
2022-12-13T04:20:12.280Z,52737.43
2022-12-13T04:21:15.178Z,52763.48
2022-12-13T04:22:24.665Z,52761.47
2022-12-13T04:23:22.759Z,52795.54
2022-12-13T04:24:31.594Z,52788.53
2022-12-13T04:25:30.646Z,52785.52
2022-12-13T04:26:33.615Z,52757.46
2022-12-13T04:27:36.695Z,52792.54
2022-12-13T04:28:40.002Z,52786.52
2022-12-13T04:29:42.867Z,52756.46
2022-12-13T04:30:45.627Z,52799.55
2022-12-13T04:31:50.192Z,52772.50
2022-12-13T04:32:53.023Z,52762.48
2022-12-13T04:33:56.409Z,52782.52
2022-12-13T04:35:01.091Z,52795.54
2022-12-13T04:36:04.416Z,52765.48
2022-12-13T04:37:07.892Z,52753.46
2022-12-13T04:38:10.765Z,52751.46
2022-12-13T04:39:21.699Z,52783.52
2022-12-13T04:40:21.815Z,52810.57
2022-12-13T04:41:22.569Z,52785.52
2022-12-13T04:42:25.340Z,52778.51
2022-12-13T04:43:28.331Z,52750.45
2022-12-13T04:44:36.578Z,52809.57
2022-12-13T04:45:37.582Z,52760.47
2022-12-13T04:46:40.756Z,52778.51
2022-12-13T04:47:43.614Z,52800.55
2022-12-13T04:48:46.282Z,52793.54
2022-12-13T04:49:48.948Z,52765.48
2022-12-13T04:50:51.931Z,52784.52
2022-12-13T04:51:59.026Z,52752.46
2022-12-13T04:52:58.794Z,52770.49
2022-12-13T04:54:23.674Z,52765.48
2022-12-13T04:55:05.990Z,52790.53
2022-12-13T04:56:08.754Z,52773.50
2022-12-13T04:57:12.445Z,52801.55
2022-12-13T04:58:19.740Z,52813.58
2022-12-13T04:59:19.524Z,52791.54
2022-12-13T05:00:22.415Z,52809.57
2022-12-13T05:01:25.525Z,52804.56
2022-12-13T05:02:28.538Z,52812.58
2022-12-13T05:03:31.251Z,52817.59
2022-12-13T05:04:34.011Z,52793.54
2022-12-13T05:05:36.774Z,52831.61
2022-12-13T05:06:40.174Z,52861.67
2022-12-13T05:07:43.215Z,52835.62
2022-12-13T05:08:45.921Z,52829.61
2022-12-13T05:09:48.690Z,52839.63
2022-12-13T05:10:51.775Z,52829.61
2022-12-13T05:12:01.031Z,52855.66
2022-12-13T05:12:59.711Z,52847.64
2022-12-13T05:14:03.990Z,52832.62
2022-12-13T05:15:07.253Z,52817.59
2022-12-13T05:16:10.442Z,52837.62
2022-12-13T05:17:14.040Z,52837.62
2022-12-13T05:18:16.909Z,52838.62
2022-12-13T05:19:19.990Z,52835.62
2022-12-13T05:20:23.587Z,52843.64
2022-12-13T05:21:26.148Z,52808.57
2022-12-13T05:22:29.233Z,52805.56
2022-12-13T05:23:32.019Z,52777.50
2022-12-13T05:24:34.977Z,52829.61
2022-12-13T05:25:37.951Z,52831.61
2022-12-13T05:26:40.618Z,52835.62
2022-12-13T05:27:43.404Z,52879.71
2022-12-13T05:28:46.782Z,52875.70
2022-12-13T05:29:49.863Z,52892.73
2022-12-13T05:30:53.363Z,52906.77
2022-12-13T05:31:56.518Z,52902.76
2022-12-13T05:32:59.522Z,52895.74
2022-12-13T05:34:02.478Z,52870.69
2022-12-13T05:35:05.571Z,52837.62
2022-12-13T05:36:08.972Z,52830.61
2022-12-13T05:37:12.031Z,52852.66
2022-12-13T05:38:15.008Z,52863.68
2022-12-13T05:39:27.972Z,52851.65
2022-12-13T05:40:23.058Z,52861.67
2022-12-13T05:41:25.880Z,52862.68
2022-12-13T05:42:28.865Z,52818.59
2022-12-13T05:43:42.487Z,52867.68
2022-12-13T05:44:36.040Z,52831.61
2022-12-13T05:45:38.847Z,52838.62
2022-12-13T05:46:41.738Z,52841.63
2022-12-13T05:47:44.456Z,52795.54
2022-12-13T05:48:47.751Z,52820.59
2022-12-13T05:49:50.412Z,52803.56
2022-12-13T05:51:11.198Z,52802.55
2022-12-13T05:51:57.805Z,52805.56
2022-12-13T05:53:01.606Z,52765.48
2022-12-13T05:54:04.286Z,52765.48
2022-12-13T05:55:06.947Z,52822.59
2022-12-13T05:56:10.024Z,52789.53
2022-12-13T05:57:12.890Z,52779.51
2022-12-13T05:58:16.091Z,52774.50
2022-12-13T05:59:20.610Z,52803.56
2022-12-13T06:00:28.831Z,52781.52
2022-12-13T06:01:28.186Z,52791.54
2022-12-13T06:02:31.346Z,52812.58
2022-12-13T06:03:34.351Z,52780.51
2022-12-13T06:04:37.123Z,52797.55
2022-12-13T06:05:39.784Z,52785.52
2022-12-13T06:06:42.655Z,52813.58
2022-12-13T06:07:45.331Z,52824.60
2022-12-13T06:08:47.987Z,52804.56
2022-12-13T06:09:50.884Z,52815.58
2022-12-13T06:10:53.969Z,52827.61
2022-12-13T06:12:01.025Z,52837.62
2022-12-13T06:13:21.004Z,52807.57
2022-12-13T06:14:21.468Z,52827.61
2022-12-13T06:15:21.984Z,52819.59
2022-12-13T06:16:23.319Z,52845.64
2022-12-13T06:17:21.460Z,52811.57
2022-12-13T06:18:24.515Z,52853.66
2022-12-13T06:19:27.805Z,52854.66
2022-12-13T06:20:30.479Z,52887.73
2022-12-13T06:21:41.200Z,52884.72
2022-12-13T06:22:38.588Z,52895.74
2022-12-13T06:23:41.982Z,52886.72
2022-12-13T06:24:45.076Z,52891.73
2022-12-13T06:25:51.665Z,52916.79
2022-12-13T06:26:52.749Z,52925.80
2022-12-13T06:27:55.715Z,52921.79
2022-12-13T06:28:58.706Z,52901.75
2022-12-13T06:30:02.846Z,52920.79
2022-12-13T06:31:06.428Z,52915.78
2022-12-13T06:32:09.569Z,52884.72
2022-12-13T06:33:13.195Z,52897.75
2022-12-13T06:34:17.167Z,52907.77
2022-12-13T06:35:29.974Z,52903.76
2022-12-13T06:36:27.744Z,52907.77
2022-12-13T06:37:31.017Z,52902.76
2022-12-13T06:38:33.892Z,52908.77
2022-12-13T06:39:36.751Z,52946.84
2022-12-13T06:40:40.055Z,52986.93
2022-12-13T06:41:43.335Z,52956.86
2022-12-13T06:42:45.993Z,52969.89
2022-12-13T06:43:49.078Z,53004.96
2022-12-13T06:44:55.992Z,52969.89
2022-12-13T06:45:56.523Z,53003.96
2022-12-13T06:47:11.532Z,52987.93
2022-12-13T06:48:03.852Z,52991.94
2022-12-13T06:49:07.229Z,53003.96
2022-12-13T06:50:10.112Z,53023.00
2022-12-13T06:51:13.302Z,53028.01
2022-12-13T06:52:17.901Z,53022.00
2022-12-13T06:53:20.584Z,52997.95
2022-12-13T06:54:24.374Z,52955.86
2022-12-13T06:55:27.350Z,52996.95
2022-12-13T06:56:30.332Z,53009.97
2022-12-13T06:57:33.637Z,52986.93
2022-12-13T06:58:36.810Z,53024.00
2022-12-13T06:59:39.937Z,53108.17
2022-12-13T07:00:48.864Z,53101.16
2022-12-13T07:01:50.626Z,53102.16
2022-12-13T07:02:52.138Z,53057.07
2022-12-13T07:03:56.399Z,53042.04
2022-12-13T07:04:59.978Z,53022.00
2022-12-13T07:06:03.187Z,53003.96
2022-12-13T07:07:06.756Z,52989.93
2022-12-13T07:08:10.012Z,53057.07
2022-12-13T07:09:13.014Z,53049.05
2022-12-13T07:10:22.520Z,53028.01
2022-12-13T07:11:20.411Z,53017.99
2022-12-13T07:12:26.381Z,53027.01
2022-12-13T07:13:29.344Z,53002.96
2022-12-13T07:14:32.627Z,53024.00
2022-12-13T07:15:37.284Z,53011.98
2022-12-13T07:16:40.309Z,53060.07
2022-12-13T07:17:42.970Z,53039.03
2022-12-13T07:18:45.761Z,52957.87
2022-12-13T07:19:48.908Z,53016.99
2022-12-13T07:20:52.225Z,53029.01
2022-12-13T07:21:54.988Z,53098.15
2022-12-13T07:22:59.301Z,53103.16
2022-12-13T07:24:01.978Z,53133.23
2022-12-13T07:25:04.805Z,53206.38
2022-12-13T07:26:07.826Z,53226.42
2022-12-13T07:27:10.734Z,53212.39
2022-12-13T07:28:13.589Z,53232.43
2022-12-13T07:29:22.111Z,53229.43
2022-12-13T07:30:20.864Z,53207.38
2022-12-13T07:31:24.057Z,53286.55
2022-12-13T07:32:27.022Z,53293.56
2022-12-13T07:33:29.790Z,53394.77
2022-12-13T07:34:32.577Z,53379.74
2022-12-13T07:35:37.484Z,53401.79
2022-12-13T07:36:40.258Z,53378.74
2022-12-13T07:37:43.030Z,53367.72
2022-12-13T07:38:46.003Z,53404.80
2022-12-13T07:39:49.391Z,53498.00
2022-12-13T07:40:52.346Z,53461.92
2022-12-13T07:41:55.551Z,53335.65
2022-12-13T07:42:58.856Z,53354.69
2022-12-13T07:44:01.705Z,53348.68
2022-12-13T07:45:04.493Z,53348.68
2022-12-13T07:46:07.919Z,53294.56
2022-12-13T07:47:10.864Z,53336.65
2022-12-13T07:48:13.827Z,53400.79
2022-12-13T07:49:16.509Z,53390.77
2022-12-13T07:50:24.830Z,53332.64
2022-12-13T07:51:23.884Z,53385.76
2022-12-13T07:52:26.759Z,53421.83
2022-12-13T07:53:29.777Z,53462.92
2022-12-13T07:54:33.839Z,53517.04
2022-12-13T07:55:36.921Z,53570.15
2022-12-13T07:56:39.804Z,53592.20
2022-12-13T07:57:42.461Z,53645.32
2022-12-13T07:58:45.906Z,53635.30
2022-12-13T07:59:48.626Z,53750.55
2022-12-13T08:00:51.725Z,53775.61
2022-12-13T08:01:54.848Z,53873.83
2022-12-13T08:02:57.860Z,53907.91
2022-12-13T08:04:01.238Z,53893.87
2022-12-13T08:05:15.485Z,53953.01
2022-12-13T08:06:08.446Z,53922.94
2022-12-13T08:07:11.101Z,53913.92
2022-12-13T08:08:13.915Z,53911.91
2022-12-13T08:09:16.890Z,53945.99
2022-12-13T08:10:20.154Z,53927.95
2022-12-13T08:11:23.131Z,53900.89
2022-12-13T08:12:26.799Z,53903.90
2022-12-13T08:13:30.080Z,53925.95
2022-12-13T08:14:32.867Z,53968.04
2022-12-13T08:15:35.633Z,53992.10
2022-12-13T08:16:39.499Z,54010.14
2022-12-13T08:17:42.402Z,54041.21
2022-12-13T08:18:45.912Z,54012.14
2022-12-13T08:19:48.881Z,54062.26
2022-12-13T08:20:52.259Z,54064.26
2022-12-13T08:21:57.139Z,54070.28
2022-12-13T08:23:01.963Z,54050.23
2022-12-13T08:24:04.364Z,54099.34
2022-12-13T08:25:08.055Z,54179.53
2022-12-13T08:26:12.153Z,54222.63
2022-12-13T08:27:16.551Z,54214.61
2022-12-13T08:28:19.941Z,54224.64
2022-12-13T08:29:33.071Z,54312.84
2022-12-13T08:30:28.041Z,54389.02
2022-12-13T08:31:33.783Z,54415.09
2022-12-13T08:32:37.182Z,54419.09
2022-12-13T08:33:40.449Z,54460.20
2022-12-13T08:34:43.962Z,54551.41
2022-12-13T08:35:47.534Z,54594.52
2022-12-13T08:36:50.822Z,54653.66
2022-12-13T08:37:54.748Z,54693.76
2022-12-13T08:38:57.810Z,54800.02
2022-12-13T08:40:00.678Z,54836.12
2022-12-13T08:41:03.949Z,54922.33
2022-12-13T08:42:16.170Z,54902.28
2022-12-13T08:43:12.884Z,54920.32
2022-12-13T08:44:15.868Z,54941.38
2022-12-13T08:45:26.029Z,54963.43
2022-12-13T08:46:29.577Z,54975.46
2022-12-13T08:47:38.224Z,54975.46
2022-12-13T08:48:44.522Z,54997.52
2022-12-13T08:49:42.939Z,55032.61
2022-12-13T08:50:46.418Z,55076.72
2022-12-13T08:51:49.510Z,55099.78
2022-12-13T08:52:52.885Z,55140.89
2022-12-13T08:54:10.737Z,55112.82
2022-12-13T08:55:01.611Z,55072.71
2022-12-13T08:56:05.210Z,55092.77
2022-12-13T08:57:08.578Z,55082.74
2022-12-13T08:58:12.594Z,55070.71
2022-12-13T08:59:16.503Z,55040.63
2022-12-13T09:00:20.389Z,55017.57
2022-12-13T09:01:24.112Z,55004.54
2022-12-13T09:02:28.282Z,54960.43
2022-12-13T09:03:31.672Z,55001.53
2022-12-13T09:04:36.798Z,54993.51
2022-12-13T09:05:40.481Z,55044.64
2022-12-13T09:06:43.452Z,55004.54
2022-12-13T09:07:47.146Z,55114.82
2022-12-13T09:08:51.720Z,55093.77
2022-12-13T09:09:55.567Z,55229.12
2022-12-13T09:10:59.752Z,55286.27
2022-12-13T09:12:03.569Z,55378.51
2022-12-13T09:13:11.727Z,55473.76
2022-12-13T09:14:14.071Z,55574.03
2022-12-13T09:15:22.822Z,55653.24
2022-12-13T09:16:23.084Z,55731.45
2022-12-13T09:17:27.375Z,55797.63
2022-12-13T09:18:36.412Z,55842.76
2022-12-13T09:19:37.796Z,55898.91
2022-12-13T09:20:42.113Z,55938.02
2022-12-13T09:21:44.912Z,55979.14
2022-12-13T09:22:48.391Z,56014.23
2022-12-13T09:23:52.399Z,55972.12
2022-12-13T09:24:55.881Z,56045.32
2022-12-13T09:26:05.393Z,56083.43
2022-12-13T09:27:09.636Z,56057.36
2022-12-13T09:28:09.939Z,56069.39
2022-12-13T09:29:13.620Z,56038.30
2022-12-13T09:30:17.555Z,56014.23
2022-12-13T09:31:20.651Z,56018.25
2022-12-13T09:32:24.407Z,55991.17
2022-12-13T09:33:29.906Z,55980.14
2022-12-13T09:34:32.169Z,55994.18
2022-12-13T09:35:35.367Z,55952.06
2022-12-13T09:36:38.695Z,55983.14
2022-12-13T09:37:45.882Z,55947.05
2022-12-13T09:38:46.989Z,55943.04
2022-12-13T09:39:54.921Z,55960.08
2022-12-13T09:40:59.215Z,55968.11
2022-12-13T09:42:01.856Z,55949.05
2022-12-13T09:43:13.718Z,55916.96
2022-12-13T09:44:32.095Z,55920.97
2022-12-13T09:45:22.710Z,55909.94
2022-12-13T09:46:23.141Z,55918.97
2022-12-13T09:47:25.240Z,55920.97
2022-12-13T09:48:28.986Z,55921.98
2022-12-13T09:49:34.953Z,55950.05
2022-12-13T09:50:46.410Z,55927.99
2022-12-13T09:51:48.903Z,55951.06
2022-12-13T09:52:49.342Z,55963.09
2022-12-13T09:53:53.339Z,55982.14
2022-12-13T09:54:56.629Z,55993.18
2022-12-13T09:56:10.040Z,56017.24
2022-12-13T09:57:05.239Z,56014.23
2022-12-13T09:58:08.934Z,56008.21
2022-12-13T09:59:12.034Z,56033.29
2022-12-13T10:00:15.304Z,56323.11
2022-12-13T10:01:23.445Z,56324.11
2022-12-13T10:02:23.770Z,56402.34
2022-12-13T10:03:27.409Z,56475.55
2022-12-13T10:04:31.015Z,56527.70
2022-12-13T10:05:39.234Z,56550.77
2022-12-13T10:06:38.786Z,56548.76
2022-12-13T10:07:41.764Z,56576.85
2022-12-13T10:08:44.841Z,56576.85
2022-12-13T10:09:47.921Z,56580.86
2022-12-13T10:10:51.209Z,56606.93
2022-12-13T10:11:54.804Z,56589.88
2022-12-13T10:12:58.077Z,56628.00
2022-12-13T10:14:01.408Z,56596.90
2022-12-13T10:15:04.775Z,56610.95
2022-12-13T10:16:08.299Z,56637.02
2022-12-13T10:17:12.038Z,56639.03
2022-12-13T10:18:15.319Z,56697.20
2022-12-13T10:19:28.857Z,56719.27
2022-12-13T10:20:24.149Z,56808.53
2022-12-13T10:21:27.324Z,56845.64
2022-12-13T10:22:30.814Z,56850.66
2022-12-13T10:23:59.362Z,56875.73
2022-12-13T10:24:39.532Z,56917.86
2022-12-13T10:25:42.656Z,56956.98
2022-12-13T10:26:46.372Z,56932.91
2022-12-13T10:27:49.691Z,56914.85
2022-12-13T10:28:53.082Z,56890.78
2022-12-13T10:29:58.003Z,56890.78
2022-12-13T10:31:01.400Z,56892.79
2022-12-13T10:32:04.893Z,56869.72
2022-12-13T10:33:08.371Z,56843.64
2022-12-13T10:34:11.830Z,56874.73
2022-12-13T10:35:15.372Z,56822.57
2022-12-13T10:36:24.995Z,56870.72
2022-12-13T10:37:24.996Z,56827.59
2022-12-13T10:38:31.923Z,56843.64
2022-12-13T10:39:33.501Z,56745.34
2022-12-13T10:40:37.194Z,56760.39
2022-12-13T10:41:40.583Z,56698.20
2022-12-13T10:42:44.076Z,56715.25
2022-12-13T10:43:47.799Z,56677.14
2022-12-13T10:44:51.460Z,56626.99
2022-12-13T10:45:54.791Z,56616.96
2022-12-13T10:46:58.320Z,56647.05
2022-12-13T10:48:04.150Z,56630.00
2022-12-13T10:49:06.644Z,56636.02
2022-12-13T10:50:09.728Z,56610.95
2022-12-13T10:51:13.336Z,56576.85
2022-12-13T10:52:16.385Z,56587.88
2022-12-13T10:53:22.926Z,56540.74
2022-12-13T10:54:25.819Z,56540.74
2022-12-13T10:55:28.950Z,56552.77
2022-12-13T10:56:32.141Z,56556.79
2022-12-13T10:57:35.889Z,56557.79
2022-12-13T10:58:41.027Z,56568.82
2022-12-13T10:59:44.322Z,56600.92
2022-12-13T11:00:48.291Z,56629.00
2022-12-13T11:01:51.669Z,56582.86
2022-12-13T11:02:55.989Z,56636.02
2022-12-13T11:04:02.350Z,56616.96
2022-12-13T11:05:06.755Z,56635.02
2022-12-13T11:06:07.687Z,56651.07
2022-12-13T11:07:10.978Z,56654.07
2022-12-13T11:08:13.946Z,56675.14
2022-12-13T11:09:23.399Z,56649.06
2022-12-13T11:10:26.831Z,56697.20
2022-12-13T11:11:26.773Z,56727.29
2022-12-13T11:12:30.265Z,56726.29
2022-12-13T11:13:33.746Z,56685.16
2022-12-13T11:14:43.236Z,56685.16
2022-12-13T11:15:42.569Z,56697.20
2022-12-13T11:16:45.907Z,56756.38
2022-12-13T11:17:50.066Z,56711.24
2022-12-13T11:18:53.446Z,56710.24
2022-12-13T11:19:56.632Z,56734.31
2022-12-13T11:21:00.442Z,56740.33
2022-12-13T11:22:03.632Z,56772.43
2022-12-13T11:23:06.888Z,56760.39
2022-12-13T11:24:10.295Z,56778.44
2022-12-13T11:25:13.763Z,56785.46
2022-12-13T11:26:16.870Z,56835.61
2022-12-13T11:27:21.666Z,56839.62
2022-12-13T11:28:26.148Z,56844.64
2022-12-13T11:29:30.089Z,56820.57
2022-12-13T11:30:33.671Z,56856.68
2022-12-13T11:31:37.124Z,56802.52
2022-12-13T11:32:40.560Z,56863.70
2022-12-13T11:33:48.043Z,56880.75
2022-12-13T11:34:48.241Z,56944.95
2022-12-13T11:35:51.208Z,56930.90
2022-12-13T11:36:54.329Z,56965.00
2022-12-13T11:37:57.810Z,57038.23
2022-12-13T11:39:01.681Z,57103.43
2022-12-13T11:40:05.187Z,57148.57
2022-12-13T11:41:08.579Z,57193.70
2022-12-13T11:42:11.529Z,57209.75
2022-12-13T11:43:14.610Z,57182.67
2022-12-13T11:44:19.122Z,57216.78
2022-12-13T11:45:23.649Z,57265.93
2022-12-13T11:46:27.501Z,57252.89
2022-12-13T11:47:30.417Z,57273.95
2022-12-13T11:48:33.495Z,57263.92
2022-12-13T11:49:37.289Z,57288.00
2022-12-13T11:50:40.372Z,57325.11
2022-12-13T11:51:43.459Z,57322.11
2022-12-13T11:52:46.735Z,57329.12
2022-12-13T11:53:49.713Z,57374.27
2022-12-13T11:54:53.509Z,57440.48
2022-12-13T11:55:56.689Z,57468.57
2022-12-13T11:56:59.870Z,57470.57
2022-12-13T11:58:03.983Z,57606.00
2022-12-13T11:59:16.254Z,57717.36
2022-12-13T12:00:13.301Z,57765.51
2022-12-13T12:01:16.280Z,57787.59
2022-12-13T12:02:19.632Z,57788.59
2022-12-13T12:03:23.145Z,57810.66
2022-12-13T12:04:26.341Z,57844.77
2022-12-13T12:05:29.834Z,57854.80
2022-12-13T12:06:33.321Z,57894.93
2022-12-13T12:07:36.405Z,57922.02
2022-12-13T12:08:39.685Z,57948.11
2022-12-13T12:09:42.760Z,57945.10
2022-12-13T12:10:49.966Z,58022.35
2022-12-13T12:11:51.937Z,58065.50
2022-12-13T12:12:54.862Z,58065.50
2022-12-13T12:13:58.354Z,58096.60
2022-12-13T12:15:05.344Z,58154.79
2022-12-13T12:16:06.120Z,58169.84
2022-12-13T12:17:09.639Z,58172.85
2022-12-13T12:18:12.617Z,58179.87
2022-12-13T12:19:16.218Z,58223.02
2022-12-13T12:20:23.699Z,58242.08
2022-12-13T12:21:32.806Z,58299.28
2022-12-13T12:22:29.143Z,58324.36
2022-12-13T12:23:32.215Z,58369.52
2022-12-13T12:24:35.705Z,58434.73